LGAVLGSM

Guest
Details From LGAV - Athens Intl Airport Elefterios Venizel
To LGSM - Samos
Flight Number -
Tags Routegen Generated
Created
Modified
Stats Distance 143 nm / 265 km
Max Altitude 600 ft / 183 m
Waypoints 8
Social Downloads 1
Likes 0
Share VATSIM

Download

Looking for another format? Having issues loading an existing format? Contact us
Advertisement - Login to hide

Notes

Departing runway 3 LGAV. Arriving runway 9 LGSM.

Route

LGAV +38.01_+024.03 +38.04_+024.09 +38.06_+024.16 +38.05_+024.23 +37.92_+025.22 +37.69_+026.81 LGSM

ID Type Via Altitude Latitude Longitude Leg Dist Tot Dist Heading (true) Name
O LGAV APT - 0 ft / 0 m 37.95242˚ 23.97042˚ - 0 nm - -
+38.01_+024.03 LATLON - 600 ft / 183 m 38.01055˚ 24.02511˚ 4 nm 4 nm 37° / 37° -
+38.04_+024.09 LATLON - 600 ft / 183 m 38.04245˚ 24.08644˚ 3 nm 7 nm 57° / 57° -
+38.06_+024.16 LATLON - 600 ft / 183 m 38.05591˚ 24.15794˚ 3 nm 11 nm 77° / 77° -
+38.05_+024.23 LATLON - 600 ft / 183 m 38.04929˚ 24.23098˚ 3 nm 14 nm 97° / 97° -
+37.92_+025.22 LATLON - 600 ft / 183 m 37.91945˚ 25.21705˚ 47 nm 62 nm 99° / 100° -
+37.69_+026.81 LATLON - 600 ft / 183 m 37.69470˚ 26.80834˚ 76 nm 138 nm 100° / 101° -
O LGSM APT - 0 ft / 0 m 37.68966˚ 26.89957˚ 4 nm 143 nm 94° / 94° -

Altitude Profile

Advertisement - Login to hide

LGAV

Details ICAO LGAV (ATH)
Name Athens Intl Airport Elefterios Venizel
Region Greece
Timezone Europe/Athens (UTC+2.0)
Stats Elevation 308 ft / 94 m (AMSL)
Location 37.936357° 23.944470°
Runways 2
Magnetic Variation 4.483° E

METAR

LGAV 121420Z 20008KT 9999 FEW035 17/09 Q1022 NOSIG

Decode

TAF

TAF TAF LGAV 121100Z 1212/1312 20010KT 9999 FEW035 PROB30 1303/1306 3000 BR BKN006

Decode

Departure Runways

ID Width Length Bearing (true) Bearing (mag) Surface Threshold Offset Overrun Length
03L 148 ft / 45 m 12,474 ft / 3,802 m 36.51° 32.03° Asphalt 984 ft / 300 m 393 ft / 120 m
03R 148 ft / 45 m 13,131 ft / 4,002 m 36.52° 32.04° Asphalt 984 ft / 300 m 393 ft / 120 m
21L 148 ft / 45 m 13,131 ft / 4,002 m 216.54° 212.06° Asphalt 984 ft / 300 m 393 ft / 120 m
21R 148 ft / 45 m 12,474 ft / 3,802 m 216.53° 212.05° Asphalt 984 ft / 300 m 393 ft / 120 m

LGSM

Details ICAO LGSM (SMI)
Name SAMOS
Region Greece
Timezone Europe/Athens (UTC+2.0)
Stats Elevation 19 ft / 6 m (AMSL)
Location 37.689012° 26.911123°
Runways 1
Magnetic Variation 4.801° E

METAR

LGSM 121420Z 00000KT 9999 SCT020 17/11 Q1023

Decode

TAF

Not found

Destination Runways

ID Width Length Bearing (true) Bearing (mag) Surface Threshold Offset Overrun Length
09 148 ft / 45 m 6,690 ft / 2,039 m 94.02° 89.22° Asphalt 230 ft / 70 m 0 ft / 0 m
27 148 ft / 45 m 6,690 ft / 2,039 m 274.03° 269.23° Asphalt 0 ft / 0 m 0 ft / 0 m

Popular Alternatives